Time;durP1;ratioP1;P1;durP2;ratioP2;P2;SDS_P1;SDS_P2;PMS_P1;PMS_P2;Temp;Humidity;BMP_temperature;BMP_pressure;BME280_temperature;BME280_humidity;BME280_pressure;Samples;Min_cycle;Max_cycle;Signal;HPM_P1;HPM_P2
2022/06/15 00:01:32;;;;;;;1.10;1.10;;;17.90;99.90;;;;;;4154831;28;20049;-49
2022/06/15 00:03:53;;;;;;;1.23;1.23;;;17.90;99.90;;;;;;4146159;28;20108;-50
2022/06/15 00:06:25;;;;;;;1.00;1.00;;;18.00;99.90;;;;;;4161908;28;20179;-47
2022/06/15 00:08:51;;;;;;;1.00;1.00;;;18.00;99.90;;;;;;4160870;28;20048;-47
2022/06/15 00:11:17;;;;;;;1.60;1.48;;;18.10;99.90;;;;;;4161800;28;20534;-48
2022/06/15 00:13:38;;;;;;;1.30;1.30;;;18.20;99.90;;;;;;4160124;28;20056;-47
2022/06/15 00:16:00;;;;;;;1.40;1.30;;;18.30;99.90;;;;;;4161973;28;20099;-49
2022/06/15 00:18:20;;;;;;;3.45;1.55;;;18.40;99.90;;;;;;4148325;28;20129;-47
2022/06/15 00:20:41;;;;;;;0.90;0.90;;;18.40;99.90;;;;;;4152828;28;20072;-47
2022/06/15 00:23:02;;;;;;;1.20;1.10;;;18.40;99.90;;;;;;4161676;28;20111;-47
2022/06/15 00:25:22;;;;;;;1.60;1.20;;;18.40;99.90;;;;;;4161831;28;20083;-49
2022/06/15 00:27:43;;;;;;;1.55;1.00;;;18.40;99.90;;;;;;4158699;28;20048;-50
2022/06/15 00:30:05;;;;;;;2.05;1.00;;;18.30;99.90;;;;;;4161656;28;20044;-48
2022/06/15 00:32:27;;;;;;;1.17;1.08;;;18.30;99.90;;;;;;4160092;28;20524;-50
2022/06/15 00:34:47;;;;;;;1.20;1.20;;;18.30;99.90;;;;;;4145416;28;20108;-48
2022/06/15 00:37:09;;;;;;;1.50;1.02;;;18.40;99.90;;;;;;4145477;28;20128;-46
2022/06/15 00:39:32;;;;;;;1.27;1.27;;;18.40;99.90;;;;;;4150153;28;20127;-49
2022/06/15 00:41:53;;;;;;;1.35;1.20;;;18.30;99.90;;;;;;4154164;28;20424;-48
2022/06/15 00:44:19;;;;;;;1.85;1.17;;;18.20;99.90;;;;;;4157116;28;20071;-47
2022/06/15 00:46:44;;;;;;;1.38;1.35;;;18.10;99.90;;;;;;4160652;28;20103;-48
2022/06/15 00:49:41;;;;;;;2.67;1.40;;;18.00;99.90;;;;;;4156804;28;20686;-48
2022/06/15 00:52:52;;;;;;;5.50;1.35;;;18.00;99.90;;;;;;4162098;28;20427;-49
2022/06/15 00:55:19;;;;;;;1.27;1.23;;;18.00;99.90;;;;;;4126083;28;20056;-47
2022/06/15 00:57:41;;;;;;;1.25;1.15;;;17.80;99.90;;;;;;4126019;28;20089;-47
2022/06/15 01:00:05;;;;;;;1.33;1.20;;;17.70;99.90;;;;;;4114791;28;20058;-47
2022/06/15 01:02:27;;;;;;;1.45;1.13;;;17.80;99.90;;;;;;4119207;28;20532;-48
2022/06/15 01:05:06;;;;;;;3.47;1.48;;;17.90;99.90;;;;;;4121728;28;20065;-46
2022/06/15 01:07:38;;;;;;;2.45;1.30;;;17.90;99.90;;;;;;4118386;28;20053;-47
2022/06/15 01:10:25;;;;;;;1.40;1.30;;;17.90;99.90;;;;;;4121785;28;20045;-47
2022/06/15 01:13:00;;;;;;;4.20;1.15;;;18.00;99.90;;;;;;4123812;28;20129;-49
2022/06/15 01:15:33;;;;;;;1.63;1.52;;;17.90;99.90;;;;;;4126509;28;20571;-50
2022/06/15 01:18:31;;;;;;;2.25;1.95;;;17.80;99.90;;;;;;4124826;28;20097;-48
2022/06/15 01:21:13;;;;;;;1.58;1.42;;;17.80;99.90;;;;;;4126227;28;20050;-49
2022/06/15 01:23:46;;;;;;;1.20;1.20;;;17.80;99.90;;;;;;4125774;28;20134;-48
2022/06/15 01:26:21;;;;;;;;;;;17.80;99.90;;;;;;4127011;28;20117;-47
2022/06/15 01:28:46;;;;;;;1.83;1.48;;;17.80;99.90;;;;;;4122424;28;19928;-47
2022/06/15 01:31:25;;;;;;;3.95;1.30;;;17.60;99.90;;;;;;4154328;28;20091;-47
2022/06/15 01:34:23;;;;;;;1.10;1.08;;;17.60;99.90;;;;;;4161772;28;20047;-47
2022/06/15 01:37:03;;;;;;;1.65;1.55;;;17.70;99.90;;;;;;4164085;28;20052;-49
2022/06/15 01:39:46;;;;;;;1.77;1.48;;;17.60;99.90;;;;;;4164440;28;20079;-48
2022/06/15 01:42:25;;;;;;;1.50;1.50;;;17.60;99.90;;;;;;4147937;28;20057;-50
2022/06/15 01:44:50;;;;;;;2.17;1.23;;;17.60;99.90;;;;;;4147786;28;20141;-48
2022/06/15 01:47:18;;;;;;;1.30;1.30;;;17.50;99.90;;;;;;4157941;28;20068;-49
2022/06/15 01:49:49;;;;;;;2.15;1.25;;;17.50;99.90;;;;;;4164241;28;20400;-47
2022/06/15 01:52:13;;;;;;;2.63;1.55;;;17.50;99.90;;;;;;4147903;28;20476;-48
2022/06/15 01:54:40;;;;;;;1.60;1.50;;;17.50;99.90;;;;;;4147829;28;20057;-47
2022/06/15 01:57:04;;;;;;;1.10;1.10;;;17.50;99.90;;;;;;4160739;28;20053;-48
2022/06/15 02:00:04;;;;;;;1.58;1.58;;;17.40;99.90;;;;;;4157009;28;20405;-48
2022/06/15 02:02:45;;;;;;;1.75;1.45;;;17.40;99.90;;;;;;4173328;28;20096;-47
2022/06/15 02:05:22;;;;;;;2.65;1.75;;;17.30;99.90;;;;;;4162539;28;20053;-47
2022/06/15 02:07:53;;;;;;;1.20;1.20;;;17.30;99.90;;;;;;4168530;28;20091;-47
2022/06/15 02:10:25;;;;;;;2.40;1.50;;;17.30;99.90;;;;;;4165203;28;20068;-48
2022/06/15 02:12:59;;;;;;;1.33;1.30;;;17.30;99.90;;;;;;4172653;28;20056;-47
2022/06/15 02:15:25;;;;;;;1.52;1.52;;;17.20;99.90;;;;;;4177550;28;20150;-49
2022/06/15 02:17:49;;;;;;;1.98;1.33;;;17.20;99.90;;;;;;4177586;28;20083;-47
2022/06/15 02:20:19;;;;;;;1.33;1.33;;;17.20;99.90;;;;;;4176994;28;20060;-49
2022/06/15 02:22:40;;;;;;;1.35;1.23;;;17.20;99.90;;;;;;4177403;28;20055;-49
2022/06/15 02:25:04;;;;;;;1.63;1.63;;;17.20;99.90;;;;;;4176817;28;20122;-46
2022/06/15 02:27:27;;;;;;;1.80;1.70;;;17.20;99.90;;;;;;4161811;28;20048;-47
2022/06/15 02:29:52;;;;;;;1.75;1.30;;;17.10;99.90;;;;;;4177418;28;20056;-47
2022/06/15 02:32:16;;;;;;;1.45;1.33;;;17.00;99.90;;;;;;4177227;28;20114;-46
2022/06/15 02:34:38;;;;;;;1.92;1.77;;;17.00;99.90;;;;;;4177287;28;20154;-48
2022/06/15 02:37:00;;;;;;;1.50;1.40;;;16.90;99.90;;;;;;4177465;28;20080;-48
2022/06/15 02:39:23;;;;;;;1.25;1.25;;;16.80;99.90;;;;;;4152728;28;20064;-47
2022/06/15 02:41:43;;;;;;;1.88;1.60;;;16.90;99.90;;;;;;4159531;28;20060;-47
2022/06/15 02:44:06;;;;;;;2.10;1.20;;;17.00;99.90;;;;;;4160246;28;20129;-47
2022/06/15 02:46:29;;;;;;;;;;;17.00;99.90;;;;;;4147239;28;20057;-46
2022/06/15 02:48:51;;;;;;;1.40;1.40;;;16.90;99.90;;;;;;4147268;28;19927;-47
2022/06/15 02:51:29;;;;;;;2.75;1.35;;;16.90;99.90;;;;;;4150453;28;20080;-48
2022/06/15 02:53:53;;;;;;;2.05;1.60;;;16.90;99.90;;;;;;4153703;28;20052;-48
2022/06/15 02:56:16;;;;;;;1.58;1.55;;;16.90;99.90;;;;;;4148395;28;20056;-47
2022/06/15 02:58:42;;;;;;;2.00;1.50;;;16.90;99.90;;;;;;4161660;28;20137;-50
2022/06/15 03:01:03;;;;;;;2.80;1.60;;;16.80;99.90;;;;;;4160919;28;20052;-46
2022/06/15 03:03:28;;;;;;;2.47;1.50;;;16.80;99.90;;;;;;4161699;28;20072;-48
2022/06/15 03:05:50;;;;;;;1.92;1.92;;;16.80;99.90;;;;;;4162793;28;20056;-48
2022/06/15 03:08:10;;;;;;;1.38;1.35;;;16.70;99.90;;;;;;4161473;28;20133;-49
2022/06/15 03:10:31;;;;;;;2.67;1.42;;;16.70;99.90;;;;;;4163145;28;20461;-48
2022/06/15 03:12:51;;;;;;;2.55;1.60;;;16.70;99.90;;;;;;4153983;28;20566;-47
2022/06/15 03:15:12;;;;;;;2.00;1.90;;;16.60;99.90;;;;;;4162922;28;20058;-49
2022/06/15 03:17:33;;;;;;;2.35;1.50;;;16.60;99.90;;;;;;4161430;28;20048;-48
2022/06/15 03:19:55;;;;;;;4.20;1.60;;;16.60;99.90;;;;;;4162341;28;20103;-47
2022/06/15 03:22:15;;;;;;;1.85;1.73;;;16.70;99.90;;;;;;4159531;28;20115;-47
2022/06/15 03:24:36;;;;;;;1.70;1.70;;;16.70;99.90;;;;;;4162816;28;20156;-48
2022/06/15 03:26:56;;;;;;;1.50;1.40;;;16.70;99.90;;;;;;4149582;28;20044;-50
2022/06/15 03:29:18;;;;;;;5.20;1.65;;;16.70;99.90;;;;;;4162341;28;20938;-47
2022/06/15 03:31:39;;;;;;;2.33;2.13;;;16.70;99.90;;;;;;4161946;28;20103;-50
2022/06/15 03:34:00;;;;;;;2.00;1.90;;;16.60;99.90;;;;;;4162334;28;20156;-47
2022/06/15 03:36:21;;;;;;;1.60;1.50;;;16.70;99.90;;;;;;4162203;28;20685;-50
2022/06/15 03:38:42;;;;;;;1.50;1.50;;;16.60;99.90;;;;;;4155457;28;20412;-47
2022/06/15 03:41:03;;;;;;;4.18;1.85;;;16.70;99.90;;;;;;4161178;28;20103;-47
2022/06/15 03:43:24;;;;;;;3.40;1.70;;;16.50;99.90;;;;;;4161919;28;20051;-47
2022/06/15 03:45:45;;;;;;;2.90;2.05;;;16.50;99.90;;;;;;4146796;28;20138;-50
2022/06/15 03:48:06;;;;;;;3.13;1.83;;;16.50;99.90;;;;;;4153745;28;20092;-47
2022/06/15 03:50:29;;;;;;;2.75;1.50;;;16.50;99.90;;;;;;4160573;28;20048;-50
2022/06/15 03:52:51;;;;;;;;;;;16.50;99.90;;;;;;4162967;28;20091;-47
2022/06/15 03:55:17;;;;;;;1.52;1.42;;;16.50;99.90;;;;;;4148921;28;20005;-50
2022/06/15 03:57:38;;;;;;;3.55;2.78;;;16.40;99.90;;;;;;4160801;28;20103;-49
2022/06/15 03:59:58;;;;;;;4.93;2.40;;;16.40;99.90;;;;;;4161571;28;20427;-47
2022/06/15 04:02:19;;;;;;;1.85;1.42;;;16.30;99.90;;;;;;4162138;28;20527;-46
2022/06/15 04:04:40;;;;;;;3.15;1.67;;;16.30;99.90;;;;;;4160880;28;20060;-46
2022/06/15 04:07:02;;;;;;;2.13;1.85;;;16.30;99.90;;;;;;4160702;28;20423;-48
2022/06/15 04:09:24;;;;;;;3.97;1.55;;;16.40;99.90;;;;;;4161420;28;20056;-48
2022/06/15 04:12:01;;;;;;;7.07;1.63;;;16.40;99.90;;;;;;4161854;28;20067;-48
2022/06/15 04:14:24;;;;;;;3.08;1.35;;;16.40;99.90;;;;;;4147806;28;20053;-47
2022/06/15 04:16:46;;;;;;;1.80;1.70;;;16.30;99.90;;;;;;4160923;28;20052;-47
2022/06/15 04:19:08;;;;;;;1.60;1.60;;;16.40;99.90;;;;;;4146598;28;20060;-47
2022/06/15 04:21:35;;;;;;;2.42;2.10;;;16.40;99.90;;;;;;4145852;28;20060;-47
2022/06/15 04:23:56;;;;;;;3.40;1.90;;;16.50;99.90;;;;;;4159519;28;20061;-50
2022/06/15 04:26:17;;;;;;;2.15;1.80;;;16.40;99.90;;;;;;4160464;28;20421;-48
2022/06/15 04:28:39;;;;;;;1.90;1.83;;;16.50;99.90;;;;;;4158300;28;20568;-46
2022/06/15 04:31:00;;;;;;;2.35;1.70;;;16.40;99.90;;;;;;4161566;28;20099;-46
2022/06/15 04:33:23;;;;;;;1.83;1.70;;;16.50;99.90;;;;;;4161221;28;20095;-47
2022/06/15 04:35:44;;;;;;;;;;;16.50;99.90;;;;;;4152404;28;20481;-47
2022/06/15 04:38:06;;;;;;;4.00;2.45;;;16.40;99.90;;;;;;4161790;28;20376;-47
2022/06/15 04:40:27;;;;;;;2.35;2.25;;;16.60;99.90;;;;;;4161466;28;20056;-48
2022/06/15 04:42:48;;;;;;;2.22;2.03;;;16.70;99.90;;;;;;4149929;28;20088;-47
2022/06/15 04:45:13;;;;;;;2.58;2.03;;;16.80;99.90;;;;;;4150377;28;20043;-49
2022/06/15 04:47:34;;;;;;;1.88;1.77;;;16.80;99.90;;;;;;4161547;28;20455;-48
2022/06/15 04:49:55;;;;;;;1.60;1.50;;;16.70;99.90;;;;;;4160864;28;20048;-48
2022/06/15 04:52:16;;;;;;;2.58;2.38;;;16.90;99.90;;;;;;4150045;28;20524;-48
2022/06/15 04:54:37;;;;;;;2.55;1.75;;;16.90;99.90;;;;;;4149218;28;20048;-46
2022/06/15 04:56:58;;;;;;;3.80;1.85;;;17.00;99.90;;;;;;4161488;28;20408;-47
2022/06/15 04:59:18;;;;;;;6.32;2.08;;;16.90;99.90;;;;;;4151494;28;20099;-48
2022/06/15 05:01:39;;;;;;;2.35;1.98;;;16.80;99.90;;;;;;4161113;28;20065;-49
2022/06/15 05:04:00;;;;;;;5.00;1.77;;;16.80;99.90;;;;;;4161511;28;20080;-48
2022/06/15 05:06:24;;;;;;;2.08;1.50;;;16.80;99.90;;;;;;4161215;28;20056;-47
2022/06/15 05:08:44;;;;;;;2.17;2.08;;;16.80;99.90;;;;;;4162243;28;20526;-48
2022/06/15 05:11:05;;;;;;;1.90;1.90;;;16.90;99.90;;;;;;4164673;28;20495;-48
2022/06/15 05:13:26;;;;;;;1.95;1.88;;;17.00;99.90;;;;;;4162897;28;20095;-48
2022/06/15 05:15:47;;;;;;;6.18;2.20;;;16.90;99.90;;;;;;4152467;28;20516;-46
2022/06/15 05:18:09;;;;;;;2.40;2.10;;;17.00;99.90;;;;;;4164423;28;20051;-46
2022/06/15 05:20:30;;;;;;;2.78;2.58;;;17.10;99.90;;;;;;4163839;28;20095;-47
2022/06/15 05:22:55;;;;;;;7.93;2.63;;;17.10;99.90;;;;;;4147541;28;20524;-48
2022/06/15 05:25:18;;;;;;;2.22;2.17;;;17.20;99.90;;;;;;4164420;28;20095;-47
2022/06/15 05:27:39;;;;;;;2.67;2.47;;;17.20;99.90;;;;;;4153661;28;20135;-47
2022/06/15 05:30:00;;;;;;;1.90;1.80;;;17.20;99.90;;;;;;4158485;28;20091;-46
2022/06/15 05:32:20;;;;;;;2.10;2.10;;;17.30;99.90;;;;;;4164530;28;20096;-48
2022/06/15 05:34:41;;;;;;;2.28;2.17;;;17.40;99.90;;;;;;4151230;28;20137;-48
2022/06/15 05:37:02;;;;;;;2.25;2.20;;;17.50;99.90;;;;;;4164269;28;20060;-48
2022/06/15 05:39:23;;;;;;;2.78;2.10;;;17.50;99.90;;;;;;4163197;28;20130;-47
2022/06/15 05:41:44;;;;;;;3.03;1.88;;;17.60;99.90;;;;;;4164290;28;20081;-47
2022/06/15 05:46:31;;;;;;;4.60;2.20;;;17.70;99.90;;;;;;4163661;28;20079;-49
2022/06/15 05:48:54;;;;;;;2.20;2.10;;;17.80;99.90;;;;;;4164603;28;20110;-48
2022/06/15 05:51:15;;;;;;;1.85;1.65;;;17.90;99.90;;;;;;4151299;28;20428;-47
2022/06/15 05:53:36;;;;;;;2.05;1.73;;;18.10;99.90;;;;;;4158117;28;20470;-48
2022/06/15 05:55:57;;;;;;;2.25;1.73;;;18.30;99.90;;;;;;4163856;28;20052;-46
2022/06/15 05:58:18;;;;;;;1.83;1.73;;;18.50;99.90;;;;;;4156856;28;20444;-48
2022/06/15 06:00:39;;;;;;;1.95;1.85;;;18.60;99.90;;;;;;4162853;28;20058;-48
2022/06/15 06:03:00;;;;;;;1.40;1.40;;;18.70;99.90;;;;;;4163826;28;20486;-46
2022/06/15 06:05:22;;;;;;;1.35;1.35;;;18.90;99.90;;;;;;4163864;28;20057;-47
2022/06/15 06:07:43;;;;;;;1.97;1.87;;;19.00;99.90;;;;;;4163171;28;20570;-49
2022/06/15 06:10:06;;;;;;;1.27;1.20;;;19.30;99.90;;;;;;4163445;28;20096;-47
2022/06/15 06:12:26;;;;;;;5.53;1.30;;;19.50;99.90;;;;;;4163680;28;20056;-49
2022/06/15 06:14:47;;;;;;;1.65;1.55;;;19.70;99.90;;;;;;4163811;28;20048;-49
2022/06/15 06:17:09;;;;;;;1.65;1.25;;;19.60;99.90;;;;;;4163357;28;20099;-48
2022/06/15 06:19:30;;;;;;;3.33;1.25;;;19.70;99.90;;;;;;4163474;28;20051;-49
2022/06/15 06:21:51;;;;;;;1.40;1.08;;;19.90;99.90;;;;;;4163709;28;20440;-50
2022/06/15 06:24:12;;;;;;;1.77;1.30;;;20.20;99.90;;;;;;4163994;28;20044;-49
2022/06/15 06:26:33;;;;;;;1.60;1.17;;;20.30;99.90;;;;;;4163404;28;20108;-48
2022/06/15 06:28:56;;;;;;;1.13;1.13;;;20.60;99.90;;;;;;4147330;28;20077;-50
2022/06/15 06:31:20;;;;;;;1.17;1.17;;;20.80;99.90;;;;;;4159076;28;20056;-47
2022/06/15 06:33:41;;;;;;;4.03;1.10;;;20.70;99.90;;;;;;4163332;28;20121;-47
2022/06/15 06:36:07;;;;;;;1.98;1.10;;;20.80;99.90;;;;;;4163599;28;20152;-51
2022/06/15 06:38:28;;;;;;;1.92;1.52;;;20.90;99.90;;;;;;4147176;28;20397;-48
2022/06/15 06:40:54;;;;;;;2.70;1.10;;;21.00;99.90;;;;;;4159167;28;20156;-47
2022/06/15 06:43:14;;;;;;;2.60;1.00;;;21.40;99.90;;;;;;4163070;28;20487;-48
2022/06/15 06:45:36;;;;;;;1.10;1.10;;;21.70;99.90;;;;;;4163664;28;20064;-49
2022/06/15 06:47:59;;;;;;;1.10;1.10;;;22.10;99.90;;;;;;4147060;28;20077;-46
2022/06/15 06:50:23;;;;;;;0.85;0.85;;;22.50;99.90;;;;;;4158571;28;20044;-48
2022/06/15 06:52:46;;;;;;;0.82;0.82;;;22.40;99.90;;;;;;4163098;28;20056;-47
2022/06/15 06:55:08;;;;;;;1.60;0.90;;;22.80;99.90;;;;;;4163113;28;20168;-47
2022/06/15 06:57:29;;;;;;;2.35;0.90;;;22.60;99.90;;;;;;4147002;28;20060;-49
2022/06/15 06:59:50;;;;;;;0.80;0.80;;;22.90;99.90;;;;;;4157534;28;20128;-50
2022/06/15 07:02:11;;;;;;;3.90;0.73;;;22.90;99.90;;;;;;4163109;28;20150;-49
2022/06/15 07:04:32;;;;;;;0.90;0.90;;;23.00;99.90;;;;;;4163288;28;20107;-48
2022/06/15 07:06:57;;;;;;;1.52;0.93;;;23.10;99.90;;;;;;4163166;28;20061;-49
2022/06/15 07:09:17;;;;;;;2.40;0.80;;;23.50;99.90;;;;;;4156186;28;20055;-50
2022/06/15 07:11:42;;;;;;;0.70;0.70;;;24.10;99.90;;;;;;4162573;28;20044;-50
2022/06/15 07:14:05;;;;;;;0.82;0.82;;;24.30;99.90;;;;;;4163142;28;20077;-50
2022/06/15 07:16:32;;;;;;;4.10;0.80;;;24.40;99.90;;;;;;4145919;28;20048;-50
2022/06/15 07:18:53;;;;;;;4.90;0.80;;;24.30;99.90;;;;;;4156113;28;20080;-48
2022/06/15 07:21:19;;;;;;;1.58;0.80;;;24.60;99.90;;;;;;4162279;28;20040;-49
2022/06/15 07:23:42;;;;;;;0.98;0.98;;;24.80;99.90;;;;;;4162324;28;20473;-48
2022/06/15 07:26:06;;;;;;;1.55;0.70;;;24.80;99.90;;;;;;4145670;28;20161;-51
2022/06/15 07:28:26;;;;;;;0.70;0.70;;;24.80;99.90;;;;;;4155768;28;20052;-51
2022/06/15 07:30:47;;;;;;;0.70;0.70;;;25.00;99.90;;;;;;4158157;28;20052;-48
2022/06/15 07:33:08;;;;;;;1.60;0.70;;;24.90;99.90;;;;;;4146339;28;20049;-51
2022/06/15 07:35:32;;;;;;;1.27;0.63;;;25.10;99.90;;;;;;4160333;28;20052;-48
2022/06/15 07:37:53;;;;;;;0.70;0.70;;;25.40;99.90;;;;;;4162483;28;20133;-48
2022/06/15 07:40:34;;;;;;;0.70;0.70;;;25.80;99.90;;;;;;4162343;28;20070;-46
2022/06/15 07:42:55;;;;;;;1.80;0.60;;;25.90;99.90;;;;;;4162352;28;20136;-45
2022/06/15 07:45:17;;;;;;;2.10;0.60;;;26.20;99.90;;;;;;4144846;28;20052;-46
2022/06/15 07:50:17;;;;;;;0.93;0.60;;;26.30;99.90;;;;;;4162308;28;20085;-47
2022/06/15 07:52:54;;;;;;;0.98;0.60;;;26.60;99.90;;;;;;4162050;28;20428;-47
2022/06/15 07:55:17;;;;;;;0.60;0.60;;;26.40;99.90;;;;;;4162036;28;20047;-50
2022/06/15 07:57:38;;;;;;;1.85;0.60;;;26.40;99.90;;;;;;4162009;28;20139;-46
2022/06/15 08:00:06;;;;;;;0.88;0.60;;;26.50;99.90;;;;;;4161577;28;20060;-46
2022/06/15 08:02:26;;;;;;;0.50;0.50;;;26.80;99.90;;;;;;4161601;28;20124;-47
2022/06/15 08:04:47;;;;;;;1.00;0.50;;;27.00;99.90;;;;;;4161969;28;20044;-45
2022/06/15 08:07:11;;;;;;;1.13;0.60;;;27.20;99.90;;;;;;4161751;28;20126;-48
2022/06/15 08:09:31;;;;;;;1.15;0.50;;;27.60;99.90;;;;;;4161519;28;20172;-46
2022/06/15 08:14:35;;;;;;;0.60;0.60;;;27.50;99.90;;;;;;4161911;28;20447;-46
2022/06/15 08:16:56;;;;;;;2.28;0.60;;;27.40;99.90;;;;;;4160994;28;20068;-49
2022/06/15 08:19:17;;;;;;;1.38;0.60;;;27.30;99.90;;;;;;4161475;28;20409;-48
2022/06/15 08:21:38;;;;;;;1.95;0.60;;;27.90;99.90;;;;;;4161983;28;20080;-48
2022/06/15 08:23:59;;;;;;;0.50;0.50;;;28.70;99.90;;;;;;4161912;28;20103;-49
2022/06/15 08:26:25;;;;;;;0.60;0.60;;;28.70;99.90;;;;;;4147406;28;20408;-49
2022/06/15 08:28:50;;;;;;;0.70;0.50;;;28.50;99.90;;;;;;4152961;28;20122;-49
2022/06/15 08:31:12;;;;;;;0.98;0.57;;;28.00;99.90;;;;;;4161866;28;20096;-44
2022/06/15 08:33:33;;;;;;;0.50;0.50;;;28.10;99.90;;;;;;4161702;28;20616;-45
2022/06/15 08:35:54;;;;;;;0.50;0.50;;;28.50;99.90;;;;;;4161909;28;20052;-47
2022/06/15 08:38:16;;;;;;;0.95;0.50;;;28.20;99.30;;;;;;4161481;28;20192;-44
2022/06/15 08:40:45;;;;;;;1.88;0.60;;;28.40;99.90;;;;;;4161324;28;20443;-47
2022/06/15 08:43:16;;;;;;;1.33;0.50;;;28.60;99.90;;;;;;4148350;28;20598;-44
2022/06/15 08:45:46;;;;;;;2.30;0.50;;;28.30;99.90;;;;;;4145351;28;20052;-47
2022/06/15 08:48:30;;;;;;;0.60;0.50;;;28.70;99.90;;;;;;4145608;28;20416;-44
2022/06/15 08:51:11;;;;;;;1.63;0.50;;;28.50;99.90;;;;;;4152842;28;20400;-44
2022/06/15 08:53:47;;;;;;;2.78;0.50;;;28.80;99.90;;;;;;4147077;28;20064;-47
2022/06/15 08:56:16;;;;;;;0.90;0.85;;;29.10;99.90;;;;;;4161952;28;20080;-45
2022/06/15 08:58:54;;;;;;;4.28;0.80;;;28.80;99.90;;;;;;4145654;28;20107;-46
2022/06/15 09:01:46;;;;;;;0.50;0.47;;;28.50;99.90;;;;;;4158018;28;20072;-45
2022/06/15 09:04:13;;;;;;;0.95;0.50;;;28.80;99.90;;;;;;4161200;28;20084;-45
2022/06/15 09:06:51;;;;;;;0.95;0.40;;;28.90;99.90;;;;;;4161222;28;20136;-46
2022/06/15 09:09:30;;;;;;;0.50;0.50;;;29.10;99.90;;;;;;4145305;28;20520;-46
2022/06/15 09:15:07;;;;;;;;;;;29.10;99.90;;;;;;4145833;28;20092;-46
2022/06/15 09:17:28;;;;;;;1.35;0.50;;;29.90;99.90;;;;;;4150241;28;19954;-45
2022/06/15 09:20:13;;;;;;;0.60;0.60;;;29.60;99.90;;;;;;4161378;28;20131;-45
2022/06/15 09:22:52;;;;;;;2.03;0.60;;;29.40;99.90;;;;;;4161194;28;20048;-44
2022/06/15 09:25:35;;;;;;;0.50;0.50;;;29.50;99.30;;;;;;4161467;28;20072;-49
2022/06/15 09:28:06;;;;;;;1.25;0.43;;;29.30;99.90;;;;;;4161202;28;20107;-45
2022/06/15 09:30:34;;;;;;;0.45;0.40;;;29.50;99.90;;;;;;4145267;28;20478;-44
2022/06/15 09:33:06;;;;;;;0.38;0.38;;;29.20;99.50;;;;;;4155437;28;20534;-46
2022/06/15 09:35:35;;;;;;;0.70;0.40;;;29.60;99.90;;;;;;4155202;28;20484;-44
2022/06/15 09:38:00;;;;;;;0.60;0.40;;;29.60;99.60;;;;;;4145039;28;20057;-45
2022/06/15 09:40:27;;;;;;;0.40;0.40;;;29.70;99.30;;;;;;4150256;28;20194;-44
2022/06/15 09:42:56;;;;;;;0.75;0.40;;;30.10;99.10;;;;;;4161231;28;20096;-47
2022/06/15 09:45:21;;;;;;;1.55;0.50;;;30.40;99.20;;;;;;4161233;28;20579;-47
2022/06/15 09:48:19;;;;;;;1.17;0.40;;;30.00;98.40;;;;;;4161091;28;20061;-44
2022/06/15 09:50:52;;;;;;;1.50;0.40;;;29.80;98.50;;;;;;4161526;28;20511;-46
2022/06/15 09:53:21;;;;;;;2.17;0.50;;;29.70;98.00;;;;;;4144962;28;20096;-47
2022/06/15 09:55:47;;;;;;;1.50;0.50;;;30.10;98.30;;;;;;4162420;28;20080;-45
2022/06/15 09:58:33;;;;;;;1.10;0.40;;;30.00;98.00;;;;;;4159582;28;20078;-47
2022/06/15 10:00:54;;;;;;;1.05;0.50;;;30.40;98.50;;;;;;4156917;28;20135;-45
2022/06/15 10:03:38;;;;;;;0.40;0.40;;;30.70;97.30;;;;;;4160720;28;20146;-46
2022/06/15 10:06:22;;;;;;;1.17;0.40;;;30.50;97.60;;;;;;4160551;28;20052;-45
2022/06/15 10:08:44;;;;;;;4.85;0.40;;;30.80;98.90;;;;;;4157827;28;20061;-44
2022/06/15 10:11:11;;;;;;;0.40;0.40;;;31.10;97.40;;;;;;4158470;28;20578;-48
2022/06/15 10:13:36;;;;;;;0.40;0.40;;;31.20;98.30;;;;;;4151870;28;20562;-46
2022/06/15 10:16:16;;;;;;;0.30;0.30;;;31.50;97.40;;;;;;4162088;28;20061;-46
2022/06/15 10:18:48;;;;;;;0.45;0.45;;;31.70;96.00;;;;;;4158808;28;20072;-46
2022/06/15 10:21:19;;;;;;;2.38;0.40;;;31.40;97.10;;;;;;4151482;28;20140;-45
2022/06/15 10:24:08;;;;;;;0.40;0.40;;;31.60;96.40;;;;;;4160697;28;20064;-48
2022/06/15 10:26:40;;;;;;;0.85;0.30;;;31.70;96.50;;;;;;4158473;28;20072;-45
2022/06/15 10:29:31;;;;;;;0.40;0.40;;;31.70;96.10;;;;;;4155320;28;20056;-46
2022/06/15 10:32:10;;;;;;;0.47;0.40;;;32.20;97.00;;;;;;4144952;28;20413;-46
2022/06/15 10:34:48;;;;;;;2.13;0.40;;;31.90;94.60;;;;;;4155985;28;20097;-44
2022/06/15 10:37:30;;;;;;;1.95;0.40;;;32.20;94.80;;;;;;4159064;28;20048;-45
2022/06/15 10:39:55;;;;;;;1.45;0.40;;;31.80;95.10;;;;;;4156418;28;20424;-47
2022/06/15 10:42:29;;;;;;;0.40;0.40;;;31.70;95.40;;;;;;4148969;28;20618;-44
2022/06/15 10:45:01;;;;;;;0.30;0.30;;;31.70;94.60;;;;;;4146671;28;20085;-48
2022/06/15 10:47:51;;;;;;;1.05;0.40;;;31.30;96.60;;;;;;4153606;28;20056;-47
2022/06/15 10:50:32;;;;;;;0.77;0.40;;;31.90;95.60;;;;;;4159464;28;20138;-49
2022/06/15 10:53:36;;;;;;;0.45;0.40;;;31.50;94.90;;;;;;4161362;28;20056;-48
2022/06/15 11:04:12;;;;;;;1.20;0.30;;;32.00;94.40;;;;;;4158196;28;20413;-48
2022/06/15 11:06:39;;;;;;;0.30;0.30;;;32.40;93.80;;;;;;4156286;28;20156;-48
2022/06/15 11:09:00;;;;;;;1.15;0.40;;;32.30;94.30;;;;;;4158524;28;20118;-48
2022/06/15 11:11:26;;;;;;;1.48;0.40;;;32.10;93.90;;;;;;4154317;28;20052;-49
2022/06/15 11:13:56;;;;;;;0.30;0.30;;;32.20;94.40;;;;;;4147244;28;20068;-46
2022/06/15 11:19:19;;;;;;;0.40;0.40;;;32.80;94.70;;;;;;4160374;28;20121;-50
2022/06/15 11:21:47;;;;;;;1.42;0.40;;;32.80;93.50;;;;;;4159881;28;20052;-47
2022/06/15 11:24:25;;;;;;;2.25;0.50;;;32.40;93.90;;;;;;4162327;28;20073;-48
2022/06/15 11:26:57;;;;;;;0.47;0.47;;;31.80;94.00;;;;;;4152557;28;20230;-50
2022/06/15 11:29:27;;;;;;;1.40;0.40;;;32.20;93.10;;;;;;4162337;28;20214;-50
2022/06/15 11:32:01;;;;;;;0.60;0.50;;;32.50;95.00;;;;;;4161689;28;20052;-47
2022/06/15 11:34:29;;;;;;;1.60;0.40;;;32.80;95.00;;;;;;4161351;28;20096;-49
2022/06/15 11:36:58;;;;;;;1.40;0.40;;;32.90;94.70;;;;;;4161871;28;20091;-49
2022/06/15 11:39:33;;;;;;;0.65;0.40;;;33.20;93.10;;;;;;4157475;28;20052;-46
2022/06/15 11:41:56;;;;;;;0.45;0.30;;;33.10;91.40;;;;;;4162342;28;20052;-46
2022/06/15 11:44:22;;;;;;;0.85;0.38;;;32.80;91.30;;;;;;4161191;28;20080;-47
2022/06/15 11:47:02;;;;;;;1.85;0.30;;;33.00;91.70;;;;;;4162105;28;20063;-46
2022/06/15 11:49:38;;;;;;;4.15;0.40;;;32.80;91.10;;;;;;4160336;28;20432;-48
2022/06/15 11:52:14;;;;;;;0.82;0.40;;;32.80;91.30;;;;;;4161834;28;20645;-47
2022/06/15 11:55:02;;;;;;;0.43;0.40;;;33.70;94.10;;;;;;4159747;28;20048;-48
2022/06/15 11:57:42;;;;;;;0.50;0.30;;;34.10;92.60;;;;;;4159576;28;20091;-48
2022/06/15 12:00:20;;;;;;;0.43;0.30;;;34.00;90.10;;;;;;4161533;28;20048;-47
2022/06/15 12:03:12;;;;;;;1.48;0.38;;;33.60;91.30;;;;;;4161291;28;20060;-49
2022/06/15 12:05:51;;;;;;;0.30;0.30;;;34.10;91.10;;;;;;4162021;28;20401;-48
2022/06/15 12:08:37;;;;;;;1.25;0.30;;;33.80;89.60;;;;;;4156032;28;20401;-49
2022/06/15 12:12:37;;;;;;;1.30;0.30;;;33.90;90.30;;;;;;4158116;28;20052;-48
2022/06/15 12:13:53;;;;;;;0.40;0.40;;;34.10;90.10;;;;;;4143318;28;20107;-46
2022/06/15 12:16:29;;;;;;;4.00;0.40;;;33.90;90.50;;;;;;4146435;28;20056;-48
2022/06/15 12:19:07;;;;;;;1.88;0.68;;;33.90;90.50;;;;;;4144642;28;20045;-49
2022/06/15 12:21:43;;;;;;;0.30;0.30;;;34.00;88.40;;;;;;4149306;28;20080;-48
2022/06/15 12:24:28;;;;;;;0.30;0.30;;;34.10;88.90;;;;;;4139869;28;20056;-49
2022/06/15 12:27:37;;;;;;;1.60;0.30;;;33.90;88.40;;;;;;4159426;28;20141;-46
2022/06/15 12:30:20;;;;;;;0.57;0.40;;;33.90;88.00;;;;;;4125526;28;20132;-48
2022/06/15 12:32:47;;;;;;;0.40;0.30;;;34.00;89.30;;;;;;4144831;28;20056;-49
2022/06/15 12:35:23;;;;;;;0.30;0.30;;;33.90;87.20;;;;;;4157178;28;20084;-48
2022/06/15 12:37:55;;;;;;;0.30;0.30;;;33.60;89.40;;;;;;4149621;28;20100;-48
2022/06/15 12:40:30;;;;;;;1.35;0.35;;;33.40;85.90;;;;;;4145159;28;20582;-50
2022/06/15 12:42:54;;;;;;;0.93;0.30;;;33.90;84.50;;;;;;4159189;28;20060;-47
2022/06/15 12:45:19;;;;;;;1.05;0.30;;;34.20;83.80;;;;;;4143125;28;20428;-48
2022/06/15 12:47:40;;;;;;;0.40;0.40;;;34.40;83.90;;;;;;4155273;28;20457;-46
2022/06/15 12:50:04;;;;;;;0.30;0.30;;;34.10;81.90;;;;;;4161273;28;20114;-49
2022/06/15 12:52:43;;;;;;;0.30;0.30;;;34.30;85.00;;;;;;4161248;28;20099;-49
2022/06/15 12:55:36;;;;;;;3.20;0.38;;;34.40;83.50;;;;;;4144880;28;20531;-49
2022/06/15 12:58:22;;;;;;;0.60;0.35;;;34.60;84.10;;;;;;4145099;28;20153;-49
2022/06/15 13:01:13;;;;;;;0.20;0.20;;;34.60;82.80;;;;;;4159368;28;20060;-48
2022/06/15 13:04:16;;;;;;;0.77;0.30;;;34.60;84.00;;;;;;4161769;28;20103;-49
2022/06/15 13:06:40;;;;;;;3.67;0.40;;;34.50;85.40;;;;;;4159077;28;20301;-47
2022/06/15 13:09:20;;;;;;;1.48;0.30;;;34.30;84.60;;;;;;4146781;28;20060;-49
2022/06/15 13:12:04;;;;;;;0.95;0.30;;;34.40;83.40;;;;;;4158907;28;20128;-48
2022/06/15 13:14:29;;;;;;;0.43;0.30;;;34.90;85.40;;;;;;4158785;28;20574;-49